Willmathsville, Missouri
Current Conditions -  °F | °C
As of 9:55 PM on Saturday 24 Jan 2015 (Local Time) from KIRK Reporting Station
Overcast Overcast  
Wind Chill: 42°   Ceiling: 10000
Heat Index: 46°   Visibility: 10mi
Dew Point: 31°   Wind: 8mph
Humidity: 56%   Direction: 220°SW
Pressure: 29.64"   Gusts: NA
Location:  40.3435°N, 92.5364°W
Report Text: KIRK 250355Z AUTO 22007KT 10SM OVC100 08/M01 A2964 RMK AO2 SLP043 T00781006 $
Loading
Personal Weather Stations






























Interactive Weather Map New forecast layout! Learn more

10-Day Weather Forecast

Advertisements
Track Severe Weather on mobile